AUA2EC LPPT-LPMA
Flight info
| Callsign | AUA2EC |
|---|---|
| Flight time | 1h 48m |
| Altitude | 35000 |
| Route | ULVOT DCT GALPA DCT RAKUN |
| Aircraft | A20N/M-SDE2E3FGHIRWXY/LB1 |
Departure
| Time | 2026-05-05 18:01 |
|---|---|
| Airport | Lisbon Humberto Delgado Airport (LPPT) |
Arrival
| Time | 2026-05-05 19:49 |
|---|---|
| Airport | Cristiano Ronaldo International Airport (LPMA) |
| Time | Latitude | Longitude | Altitude | Speed | Heading |
|---|---|---|---|---|---|
| 2026-05-05 17:43 | 38.77161 | -9.13126 | 360 ft | 0 kts | 79° |
| 2026-05-05 17:50 | 38.77160 | -9.13132 | 362 ft | 1 kts | 79° |
| 2026-05-05 17:50 | 38.77158 | -9.13145 | 359 ft | 2 kts | 79° |
| 2026-05-05 17:51 | 38.77155 | -9.13166 | 357 ft | 2 kts | 79° |
| 2026-05-05 17:51 | 38.77151 | -9.13197 | 358 ft | 4 kts | 98° |
| 2026-05-05 17:51 | 38.77167 | -9.13216 | 359 ft | 0 kts | 168° |
| 2026-05-05 17:53 | 38.77159 | -9.13214 | 357 ft | 6 kts | 168° |
| 2026-05-05 17:53 | 38.77071 | -9.13189 | 355 ft | 17 kts | 167° |
| 2026-05-05 17:54 | 38.76945 | -9.13154 | 358 ft | 20 kts | 168° |
| 2026-05-05 17:54 | 38.76808 | -9.13125 | 354 ft | 17 kts | 187° |
| 2026-05-05 17:54 | 38.76770 | -9.13231 | 360 ft | 13 kts | 259° |
| 2026-05-05 17:54 | 38.76748 | -9.13356 | 352 ft | 16 kts | 249° |
| 2026-05-05 17:55 | 38.76685 | -9.13447 | 355 ft | 9 kts | 221° |
| 2026-05-05 17:55 | 38.76646 | -9.13534 | 355 ft | 14 kts | 260° |
| 2026-05-05 17:55 | 38.76626 | -9.13675 | 356 ft | 17 kts | 259° |
| 2026-05-05 17:55 | 38.76599 | -9.13834 | 355 ft | 19 kts | 258° |
| 2026-05-05 17:56 | 38.76562 | -9.13999 | 356 ft | 19 kts | 231° |
| 2026-05-05 17:56 | 38.76495 | -9.14140 | 357 ft | 17 kts | 264° |
| 2026-05-05 17:56 | 38.76519 | -9.14246 | 355 ft | 7 kts | 292° |
| 2026-05-05 17:56 | 38.76539 | -9.14305 | 355 ft | 0 kts | 294° |
| 2026-05-05 17:58 | 38.76568 | -9.14378 | 353 ft | 13 kts | 310° |
| 2026-05-05 17:58 | 38.76648 | -9.14386 | 357 ft | 12 kts | 20° |
| 2026-05-05 17:58 | 38.76659 | -9.14380 | 354 ft | 0 kts | 20° |
| 2026-05-05 18:00 | 38.76663 | -9.14378 | 353 ft | 4 kts | 21° |
| 2026-05-05 18:00 | 38.76882 | -9.14263 | 357 ft | 68 kts | 22° |
| 2026-05-05 18:00 | 38.77508 | -9.13926 | 361 ft | 124 kts | 22° |
| 2026-05-05 18:00 | 38.78427 | -9.13415 | 447 ft | 159 kts | 21° |
| 2026-05-05 18:01 | 38.79459 | -9.12812 | 891 ft | 168 kts | 19° |
| 2026-05-05 18:01 | 38.80530 | -9.12256 | 1665 ft | 161 kts | 20° |
| 2026-05-05 18:01 | 38.81537 | -9.11662 | 2365 ft | 163 kts | 22° |
| 2026-05-05 18:01 | 38.82593 | -9.10957 | 2725 ft | 182 kts | 25° |
| 2026-05-05 18:02 | 38.83752 | -9.10086 | 3064 ft | 204 kts | 27° |
| 2026-05-05 18:02 | 38.84967 | -9.09098 | 3325 ft | 202 kts | 30° |
| 2026-05-05 18:02 | 38.86096 | -9.08090 | 3528 ft | 196 kts | 31° |
| 2026-05-05 18:02 | 38.87191 | -9.06955 | 3654 ft | 217 kts | 43° |
| 2026-05-05 18:03 | 38.88037 | -9.05184 | 4065 ft | 251 kts | 67° |
| 2026-05-05 18:03 | 38.88215 | -9.02844 | 4672 ft | 277 kts | 97° |
| 2026-05-05 18:03 | 38.87452 | -9.00537 | 5644 ft | 285 kts | 116° |
| 2026-05-05 18:03 | 38.86378 | -8.98365 | 6591 ft | 291 kts | 130° |
| 2026-05-05 18:04 | 38.84710 | -8.96868 | 7437 ft | 299 kts | 161° |
| 2026-05-05 18:04 | 38.82680 | -8.96620 | 8346 ft | 297 kts | 193° |
| 2026-05-05 18:04 | 38.80829 | -8.97648 | 9376 ft | 288 kts | 221° |
| 2026-05-05 18:04 | 38.79375 | -8.99434 | 10137 ft | 294 kts | 230° |
| 2026-05-05 18:05 | 38.77945 | -9.01387 | 10692 ft | 310 kts | 231° |
| 2026-05-05 18:05 | 38.76455 | -9.03524 | 11013 ft | 332 kts | 232° |
| 2026-05-05 18:05 | 38.74881 | -9.05819 | 11345 ft | 351 kts | 232° |
| 2026-05-05 18:05 | 38.73253 | -9.08181 | 12097 ft | 355 kts | 232° |
| 2026-05-05 18:06 | 38.71612 | -9.10550 | 12814 ft | 363 kts | 232° |
| 2026-05-05 18:06 | 38.70462 | -9.12206 | 13136 ft | 371 kts | 231° |
| 2026-05-05 18:06 | 38.68170 | -9.15498 | 14106 ft | 376 kts | 231° |
| 2026-05-05 18:06 | 38.66420 | -9.18007 | 14833 ft | 378 kts | 231° |
| 2026-05-05 18:07 | 38.64661 | -9.20528 | 15538 ft | 381 kts | 231° |
| 2026-05-05 18:07 | 38.62890 | -9.23066 | 16269 ft | 383 kts | 231° |
| 2026-05-05 18:07 | 38.61109 | -9.25617 | 16966 ft | 386 kts | 231° |
| 2026-05-05 18:07 | 38.59313 | -9.28188 | 17656 ft | 389 kts | 231° |
| 2026-05-05 18:08 | 38.57527 | -9.30741 | 18317 ft | 392 kts | 231° |
| 2026-05-05 18:08 | 38.55700 | -9.33352 | 18902 ft | 395 kts | 231° |
| 2026-05-05 18:08 | 38.53860 | -9.35978 | 19474 ft | 398 kts | 231° |
| 2026-05-05 18:08 | 38.52005 | -9.38624 | 20057 ft | 401 kts | 231° |
| 2026-05-05 18:09 | 38.50134 | -9.41290 | 20631 ft | 404 kts | 230° |
| 2026-05-05 18:09 | 38.48244 | -9.43976 | 21192 ft | 407 kts | 230° |
| 2026-05-05 18:09 | 38.46336 | -9.46670 | 21753 ft | 410 kts | 230° |
| 2026-05-05 18:09 | 38.44442 | -9.49344 | 22295 ft | 413 kts | 230° |
| 2026-05-05 18:10 | 38.42508 | -9.52091 | 22839 ft | 416 kts | 230° |
| 2026-05-05 18:10 | 38.40571 | -9.54853 | 23380 ft | 418 kts | 230° |
| 2026-05-05 18:10 | 38.38621 | -9.57629 | 23853 ft | 421 kts | 230° |
| 2026-05-05 18:10 | 38.36661 | -9.60410 | 24096 ft | 423 kts | 230° |
| 2026-05-05 18:11 | 38.34690 | -9.63199 | 24622 ft | 423 kts | 230° |
| 2026-05-05 18:11 | 38.32717 | -9.65985 | 25170 ft | 422 kts | 231° |
| 2026-05-05 18:11 | 38.30772 | -9.68731 | 25631 ft | 424 kts | 231° |
| 2026-05-05 18:11 | 38.28792 | -9.71524 | 26080 ft | 425 kts | 231° |
| 2026-05-05 18:12 | 38.26810 | -9.74316 | 26525 ft | 426 kts | 231° |
| 2026-05-05 18:12 | 38.24819 | -9.77119 | 26993 ft | 426 kts | 231° |
| 2026-05-05 18:12 | 38.22819 | -9.79931 | 27396 ft | 428 kts | 231° |
| 2026-05-05 18:12 | 38.20813 | -9.82750 | 27813 ft | 429 kts | 231° |
| 2026-05-05 18:13 | 38.18834 | -9.85528 | 28196 ft | 430 kts | 231° |
| 2026-05-05 18:13 | 38.16817 | -9.88356 | 28583 ft | 431 kts | 231° |
| 2026-05-05 18:13 | 38.14795 | -9.91190 | 28946 ft | 432 kts | 231° |
| 2026-05-05 18:13 | 38.12788 | -9.93998 | 29673 ft | 423 kts | 231° |
| 2026-05-05 18:14 | 38.10819 | -9.96748 | 30269 ft | 420 kts | 231° |
| 2026-05-05 18:14 | 38.08845 | -9.99508 | 30505 ft | 423 kts | 231° |
| 2026-05-05 18:14 | 38.06860 | -10.02283 | 30763 ft | 425 kts | 231° |
| 2026-05-05 18:14 | 38.04864 | -10.05070 | 31056 ft | 426 kts | 231° |
| 2026-05-05 18:15 | 38.02918 | -10.07781 | 31751 ft | 416 kts | 231° |
| 2026-05-05 18:15 | 38.00956 | -10.10511 | 32369 ft | 411 kts | 231° |
| 2026-05-05 18:15 | 37.99033 | -10.13188 | 32763 ft | 410 kts | 231° |
| 2026-05-05 18:15 | 37.97115 | -10.15857 | 33124 ft | 410 kts | 231° |
| 2026-05-05 18:16 | 37.95220 | -10.18492 | 33487 ft | 409 kts | 231° |
| 2026-05-05 18:16 | 37.93305 | -10.21152 | 33816 ft | 408 kts | 231° |
| 2026-05-05 18:16 | 37.91390 | -10.23809 | 34137 ft | 408 kts | 231° |
| 2026-05-05 18:16 | 37.89452 | -10.26496 | 34411 ft | 408 kts | 231° |
| 2026-05-05 18:17 | 37.87559 | -10.29118 | 34663 ft | 408 kts | 231° |
| 2026-05-05 18:17 | 37.85633 | -10.31784 | 34892 ft | 408 kts | 231° |
| 2026-05-05 18:17 | 37.83715 | -10.34437 | 35078 ft | 410 kts | 231° |
| 2026-05-05 18:18 | 37.79803 | -10.39842 | 35110 ft | 421 kts | 231° |
| 2026-05-05 18:18 | 37.75815 | -10.45342 | 35109 ft | 430 kts | 231° |
| 2026-05-05 18:19 | 37.71750 | -10.50933 | 35113 ft | 431 kts | 231° |
| 2026-05-05 18:19 | 37.67713 | -10.56477 | 35113 ft | 432 kts | 230° |
| 2026-05-05 18:20 | 37.63644 | -10.62056 | 35115 ft | 432 kts | 230° |
| 2026-05-05 18:20 | 37.59573 | -10.67630 | 35119 ft | 432 kts | 230° |
| 2026-05-05 18:21 | 37.55495 | -10.73203 | 35117 ft | 432 kts | 230° |
| 2026-05-05 18:21 | 37.51412 | -10.78775 | 35124 ft | 432 kts | 230° |
| 2026-05-05 18:22 | 37.47343 | -10.84317 | 35114 ft | 433 kts | 230° |
| 2026-05-05 18:22 | 37.43244 | -10.89889 | 35122 ft | 433 kts | 230° |
| 2026-05-05 18:23 | 37.39152 | -10.95444 | 35123 ft | 433 kts | 230° |
| 2026-05-05 18:23 | 37.35054 | -11.00995 | 35121 ft | 433 kts | 230° |
| 2026-05-05 18:24 | 37.30945 | -11.06553 | 35127 ft | 434 kts | 230° |
| 2026-05-05 18:24 | 37.26848 | -11.12085 | 35125 ft | 434 kts | 230° |
| 2026-05-05 18:25 | 37.22726 | -11.17641 | 35127 ft | 434 kts | 230° |
| 2026-05-05 18:25 | 37.18598 | -11.23196 | 35129 ft | 434 kts | 230° |
| 2026-05-05 18:26 | 37.14496 | -11.28706 | 35124 ft | 435 kts | 230° |
| 2026-05-05 18:26 | 37.10360 | -11.34253 | 35128 ft | 435 kts | 230° |
| 2026-05-05 18:27 | 37.06233 | -11.39809 | 35131 ft | 435 kts | 230° |
| 2026-05-05 18:27 | 37.02102 | -11.45359 | 35134 ft | 435 kts | 230° |
| 2026-05-05 18:28 | 36.95911 | -11.53612 | 35131 ft | 435 kts | 230° |
| 2026-05-05 18:28 | 36.91758 | -11.59131 | 35132 ft | 435 kts | 230° |
| 2026-05-05 18:29 | 36.87616 | -11.64627 | 35134 ft | 434 kts | 230° |
| 2026-05-05 18:29 | 36.83490 | -11.70081 | 35136 ft | 434 kts | 229° |
| 2026-05-05 18:30 | 36.79328 | -11.75549 | 35135 ft | 434 kts | 229° |
| 2026-05-05 18:30 | 36.75167 | -11.81036 | 35138 ft | 434 kts | 229° |
| 2026-05-05 18:31 | 36.71016 | -11.86515 | 35138 ft | 435 kts | 229° |
| 2026-05-05 18:31 | 36.66857 | -11.91997 | 35138 ft | 435 kts | 229° |
| 2026-05-05 18:32 | 36.62722 | -11.97438 | 35137 ft | 435 kts | 229° |
| 2026-05-05 18:32 | 36.58554 | -12.02914 | 35144 ft | 435 kts | 229° |
| 2026-05-05 18:33 | 36.54376 | -12.08392 | 35141 ft | 435 kts | 229° |
| 2026-05-05 18:33 | 36.50230 | -12.13819 | 35141 ft | 435 kts | 229° |
| 2026-05-05 18:34 | 36.46053 | -12.19277 | 35140 ft | 435 kts | 229° |
| 2026-05-05 18:34 | 36.41869 | -12.24735 | 35140 ft | 436 kts | 229° |
| 2026-05-05 18:35 | 36.37708 | -12.30155 | 35142 ft | 436 kts | 229° |
| 2026-05-05 18:35 | 36.33508 | -12.35615 | 35144 ft | 436 kts | 229° |
| 2026-05-05 18:36 | 36.29305 | -12.41069 | 35143 ft | 437 kts | 229° |
| 2026-05-05 18:36 | 36.25097 | -12.46522 | 35143 ft | 437 kts | 229° |
| 2026-05-05 18:37 | 36.20912 | -12.51935 | 35145 ft | 437 kts | 229° |
| 2026-05-05 18:37 | 36.16693 | -12.57383 | 35147 ft | 438 kts | 229° |
| 2026-05-05 18:38 | 36.12499 | -12.62790 | 35143 ft | 437 kts | 229° |
| 2026-05-05 18:38 | 36.08272 | -12.68230 | 35146 ft | 438 kts | 229° |
| 2026-05-05 18:39 | 36.04043 | -12.73664 | 35145 ft | 438 kts | 229° |
| 2026-05-05 18:39 | 35.99813 | -12.79090 | 35145 ft | 438 kts | 229° |
| 2026-05-05 18:40 | 35.96293 | -12.83599 | 35144 ft | 439 kts | 229° |
| 2026-05-05 18:40 | 35.92044 | -12.89032 | 35148 ft | 439 kts | 229° |
| 2026-05-05 18:41 | 35.87831 | -12.94411 | 35143 ft | 439 kts | 229° |
| 2026-05-05 18:41 | 35.83576 | -12.99835 | 35152 ft | 439 kts | 229° |
| 2026-05-05 18:42 | 35.79317 | -13.05254 | 35140 ft | 439 kts | 229° |
| 2026-05-05 18:42 | 35.75084 | -13.10632 | 35146 ft | 439 kts | 229° |
| 2026-05-05 18:43 | 35.70815 | -13.16048 | 35142 ft | 439 kts | 228° |
| 2026-05-05 18:43 | 35.66573 | -13.21410 | 35149 ft | 439 kts | 228° |
| 2026-05-05 18:44 | 35.62315 | -13.26803 | 35149 ft | 439 kts | 229° |
| 2026-05-05 18:44 | 35.58051 | -13.32193 | 35146 ft | 439 kts | 228° |
| 2026-05-05 18:45 | 35.53783 | -13.37572 | 35142 ft | 439 kts | 228° |
| 2026-05-05 18:45 | 35.49535 | -13.42915 | 35139 ft | 439 kts | 228° |
| 2026-05-05 18:46 | 35.45260 | -13.48283 | 35150 ft | 439 kts | 228° |
| 2026-05-05 18:46 | 35.40985 | -13.53644 | 35156 ft | 439 kts | 228° |
| 2026-05-05 18:47 | 35.36701 | -13.59007 | 35140 ft | 439 kts | 228° |
| 2026-05-05 18:47 | 35.32447 | -13.64323 | 35144 ft | 439 kts | 228° |
| 2026-05-05 18:48 | 35.28157 | -13.69676 | 35144 ft | 439 kts | 228° |
| 2026-05-05 18:48 | 35.23878 | -13.75008 | 35145 ft | 439 kts | 228° |
| 2026-05-05 18:49 | 35.19591 | -13.80340 | 35146 ft | 439 kts | 228° |
| 2026-05-05 18:49 | 35.15302 | -13.85666 | 35143 ft | 439 kts | 228° |
| 2026-05-05 18:50 | 35.11039 | -13.90953 | 35143 ft | 439 kts | 228° |
| 2026-05-05 18:50 | 35.06750 | -13.96262 | 35141 ft | 439 kts | 228° |
| 2026-05-05 18:51 | 35.02483 | -14.01536 | 35142 ft | 439 kts | 228° |
| 2026-05-05 18:51 | 34.98191 | -14.06833 | 35142 ft | 439 kts | 228° |
| 2026-05-05 18:52 | 34.93893 | -14.12128 | 35143 ft | 439 kts | 228° |
| 2026-05-05 18:52 | 34.89621 | -14.17384 | 35146 ft | 439 kts | 227° |
| 2026-05-05 18:53 | 34.85326 | -14.22659 | 35143 ft | 438 kts | 227° |
| 2026-05-05 18:53 | 34.81030 | -14.27927 | 35144 ft | 439 kts | 227° |
| 2026-05-05 18:54 | 34.76724 | -14.33200 | 35142 ft | 438 kts | 227° |
| 2026-05-05 18:54 | 34.72420 | -14.38461 | 35143 ft | 438 kts | 227° |
| 2026-05-05 18:55 | 34.68114 | -14.43717 | 35139 ft | 438 kts | 227° |
| 2026-05-05 18:55 | 34.63809 | -14.48964 | 35140 ft | 438 kts | 227° |
| 2026-05-05 18:56 | 34.59529 | -14.54171 | 35140 ft | 438 kts | 227° |
| 2026-05-05 18:56 | 34.55220 | -14.59406 | 35138 ft | 438 kts | 227° |
| 2026-05-05 18:57 | 34.50904 | -14.64642 | 35135 ft | 438 kts | 227° |
| 2026-05-05 18:57 | 34.46615 | -14.69836 | 35137 ft | 438 kts | 227° |
| 2026-05-05 18:58 | 34.42299 | -14.75055 | 35138 ft | 438 kts | 227° |
| 2026-05-05 18:58 | 34.37978 | -14.80271 | 35136 ft | 438 kts | 227° |
| 2026-05-05 18:59 | 34.33693 | -14.85438 | 35135 ft | 437 kts | 227° |
| 2026-05-05 18:59 | 34.29373 | -14.90638 | 35137 ft | 437 kts | 227° |
| 2026-05-05 19:00 | 34.25059 | -14.95823 | 35132 ft | 437 kts | 227° |
| 2026-05-05 19:00 | 34.20747 | -15.00997 | 35133 ft | 437 kts | 227° |
| 2026-05-05 19:01 | 34.16432 | -15.06167 | 35136 ft | 436 kts | 227° |
| 2026-05-05 19:01 | 34.12123 | -15.11321 | 35130 ft | 436 kts | 227° |
| 2026-05-05 19:02 | 34.07832 | -15.16447 | 35126 ft | 436 kts | 227° |
| 2026-05-05 19:02 | 34.03511 | -15.21601 | 35131 ft | 436 kts | 227° |
| 2026-05-05 19:03 | 33.99203 | -15.26731 | 35131 ft | 436 kts | 227° |
| 2026-05-05 19:03 | 33.94885 | -15.31866 | 35128 ft | 435 kts | 227° |
| 2026-05-05 19:04 | 33.90571 | -15.36988 | 35126 ft | 434 kts | 227° |
| 2026-05-05 19:04 | 33.88426 | -15.39531 | 34876 ft | 431 kts | 227° |
| 2026-05-05 19:04 | 33.86319 | -15.42027 | 34317 ft | 429 kts | 227° |
| 2026-05-05 19:05 | 33.84187 | -15.44553 | 33465 ft | 429 kts | 227° |
| 2026-05-05 19:05 | 33.82052 | -15.47081 | 32436 ft | 431 kts | 227° |
| 2026-05-05 19:05 | 33.79899 | -15.49628 | 31369 ft | 434 kts | 227° |
| 2026-05-05 19:05 | 33.77739 | -15.52183 | 30472 ft | 435 kts | 227° |
| 2026-05-05 19:06 | 33.75616 | -15.54690 | 29808 ft | 430 kts | 227° |
| 2026-05-05 19:06 | 33.73486 | -15.57203 | 29084 ft | 425 kts | 227° |
| 2026-05-05 19:06 | 33.71379 | -15.59689 | 28213 ft | 424 kts | 227° |
| 2026-05-05 19:06 | 33.69250 | -15.62201 | 26844 ft | 434 kts | 227° |
| 2026-05-05 19:07 | 33.67092 | -15.64749 | 25457 ft | 446 kts | 227° |
| 2026-05-05 19:07 | 33.64871 | -15.67364 | 24543 ft | 446 kts | 227° |
| 2026-05-05 19:07 | 33.62660 | -15.69963 | 23803 ft | 442 kts | 227° |
| 2026-05-05 19:07 | 33.60470 | -15.72536 | 22957 ft | 438 kts | 227° |
| 2026-05-05 19:08 | 33.58304 | -15.75079 | 22145 ft | 433 kts | 227° |
| 2026-05-05 19:08 | 33.56159 | -15.77595 | 21333 ft | 429 kts | 226° |
| 2026-05-05 19:08 | 33.53991 | -15.80033 | 20557 ft | 425 kts | 226° |
| 2026-05-05 19:08 | 33.51875 | -15.82495 | 19785 ft | 421 kts | 227° |
| 2026-05-05 19:09 | 33.49831 | -15.84926 | 19050 ft | 417 kts | 227° |
| 2026-05-05 19:09 | 33.47772 | -15.87376 | 18297 ft | 414 kts | 227° |
| 2026-05-05 19:09 | 33.45728 | -15.89793 | 17461 ft | 411 kts | 226° |
| 2026-05-05 19:09 | 33.43693 | -15.92186 | 16678 ft | 408 kts | 226° |
| 2026-05-05 19:10 | 33.41673 | -15.94552 | 15898 ft | 404 kts | 226° |
| 2026-05-05 19:10 | 33.39663 | -15.96901 | 15132 ft | 402 kts | 226° |
| 2026-05-05 19:10 | 33.37669 | -15.99232 | 14375 ft | 399 kts | 226° |
| 2026-05-05 19:10 | 33.35684 | -16.01550 | 13584 ft | 397 kts | 226° |
| 2026-05-05 19:11 | 33.33730 | -16.03833 | 12790 ft | 394 kts | 226° |
| 2026-05-05 19:11 | 33.31775 | -16.06114 | 12054 ft | 391 kts | 226° |
| 2026-05-05 19:11 | 33.29831 | -16.08381 | 11333 ft | 388 kts | 225° |
| 2026-05-05 19:11 | 33.27898 | -16.10631 | 10603 ft | 387 kts | 225° |
| 2026-05-05 19:12 | 33.25971 | -16.12874 | 9903 ft | 384 kts | 225° |
| 2026-05-05 19:12 | 33.24061 | -16.15095 | 9221 ft | 380 kts | 225° |
| 2026-05-05 19:12 | 33.22180 | -16.17282 | 8584 ft | 375 kts | 225° |
| 2026-05-05 19:12 | 33.20327 | -16.19434 | 8162 ft | 365 kts | 225° |
| 2026-05-05 19:13 | 33.18568 | -16.21475 | 7986 ft | 349 kts | 225° |
| 2026-05-05 19:13 | 33.16865 | -16.23449 | 7829 ft | 333 kts | 225° |
| 2026-05-05 19:13 | 33.15238 | -16.25334 | 7691 ft | 319 kts | 225° |
| 2026-05-05 19:13 | 33.13677 | -16.27143 | 7557 ft | 305 kts | 225° |
| 2026-05-05 19:14 | 33.12185 | -16.28870 | 7440 ft | 292 kts | 225° |
| 2026-05-05 19:14 | 33.10755 | -16.30526 | 7271 ft | 282 kts | 225° |
| 2026-05-05 19:14 | 33.09356 | -16.32144 | 6937 ft | 279 kts | 225° |
| 2026-05-05 19:14 | 33.07964 | -16.33756 | 6563 ft | 278 kts | 225° |
| 2026-05-05 19:15 | 33.06576 | -16.35361 | 6166 ft | 277 kts | 225° |
| 2026-05-05 19:15 | 33.05198 | -16.36955 | 5795 ft | 275 kts | 224° |
| 2026-05-05 19:15 | 33.03824 | -16.38543 | 5421 ft | 274 kts | 224° |
| 2026-05-05 19:15 | 33.02459 | -16.40120 | 5049 ft | 273 kts | 224° |
| 2026-05-05 19:16 | 33.01115 | -16.41672 | 4660 ft | 272 kts | 223° |
| 2026-05-05 19:16 | 32.99749 | -16.43253 | 4210 ft | 274 kts | 223° |
| 2026-05-05 19:16 | 32.98371 | -16.44844 | 4058 ft | 287 kts | 223° |
| 2026-05-05 19:16 | 32.96854 | -16.46589 | 4024 ft | 310 kts | 222° |
| 2026-05-05 19:17 | 32.95295 | -16.48386 | 4019 ft | 312 kts | 223° |
| 2026-05-05 19:17 | 32.93738 | -16.50180 | 4016 ft | 308 kts | 223° |
| 2026-05-05 19:17 | 32.92199 | -16.51946 | 4016 ft | 306 kts | 221° |
| 2026-05-05 19:17 | 32.90649 | -16.53632 | 3890 ft | 305 kts | 220° |
| 2026-05-05 19:18 | 32.89053 | -16.55316 | 3495 ft | 306 kts | 219° |
| 2026-05-05 19:18 | 32.87485 | -16.56962 | 3353 ft | 294 kts | 219° |
| 2026-05-05 19:18 | 32.85991 | -16.58540 | 3229 ft | 280 kts | 219° |
| 2026-05-05 19:18 | 32.84482 | -16.59931 | 3091 ft | 267 kts | 211° |
| 2026-05-05 19:19 | 32.82987 | -16.61150 | 3025 ft | 254 kts | 212° |
| 2026-05-05 19:19 | 32.81568 | -16.62320 | 2997 ft | 244 kts | 212° |
| 2026-05-05 19:19 | 32.80134 | -16.63500 | 2999 ft | 257 kts | 212° |
| 2026-05-05 19:19 | 32.78666 | -16.64711 | 2997 ft | 255 kts | 212° |
| 2026-05-05 19:20 | 32.77209 | -16.65915 | 2993 ft | 254 kts | 213° |
| 2026-05-05 19:20 | 32.75773 | -16.67101 | 2929 ft | 254 kts | 212° |
| 2026-05-05 19:20 | 32.74342 | -16.68285 | 2855 ft | 246 kts | 212° |
| 2026-05-05 19:20 | 32.72960 | -16.69428 | 2758 ft | 237 kts | 213° |
| 2026-05-05 19:21 | 32.71641 | -16.70521 | 2659 ft | 225 kts | 212° |
| 2026-05-05 19:21 | 32.70371 | -16.71571 | 2389 ft | 222 kts | 212° |
| 2026-05-05 19:21 | 32.69106 | -16.72628 | 2004 ft | 221 kts | 213° |
| 2026-05-05 19:21 | 32.67861 | -16.73697 | 1615 ft | 220 kts | 213° |
| 2026-05-05 19:22 | 32.66620 | -16.74744 | 1231 ft | 215 kts | 214° |
| 2026-05-05 19:22 | 32.65463 | -16.75692 | 1128 ft | 189 kts | 213° |
| 2026-05-05 19:22 | 32.64446 | -16.76541 | 1001 ft | 172 kts | 213° |
| 2026-05-05 19:22 | 32.63334 | -16.77115 | 1302 ft | 181 kts | 191° |
| 2026-05-05 19:23 | 32.62123 | -16.77508 | 1863 ft | 181 kts | 195° |
| 2026-05-05 19:23 | 32.60776 | -16.77976 | 1386 ft | 222 kts | 193° |
| 2026-05-05 19:23 | 32.59087 | -16.78438 | 1013 ft | 275 kts | 189° |
| 2026-05-05 19:23 | 32.57166 | -16.78885 | 1829 ft | 286 kts | 187° |
| 2026-05-05 19:24 | 32.55291 | -16.79335 | 1939 ft | 267 kts | 189° |
| 2026-05-05 19:24 | 32.53542 | -16.79835 | 1989 ft | 250 kts | 192° |
| 2026-05-05 19:24 | 32.51907 | -16.80394 | 1992 ft | 237 kts | 194° |
| 2026-05-05 19:24 | 32.50380 | -16.80994 | 1989 ft | 224 kts | 196° |
| 2026-05-05 19:25 | 32.49420 | -16.81392 | 1996 ft | 222 kts | 197° |
| 2026-05-05 19:25 | 32.47933 | -16.82024 | 2191 ft | 231 kts | 197° |
| 2026-05-05 19:25 | 32.46413 | -16.82679 | 3001 ft | 232 kts | 197° |
| 2026-05-05 19:25 | 32.44886 | -16.83343 | 3613 ft | 236 kts | 199° |
| 2026-05-05 19:26 | 32.43355 | -16.84112 | 3873 ft | 240 kts | 202° |
| 2026-05-05 19:26 | 32.41839 | -16.84940 | 3979 ft | 238 kts | 204° |
| 2026-05-05 19:26 | 32.40351 | -16.85762 | 3981 ft | 232 kts | 203° |
| 2026-05-05 19:26 | 32.38978 | -16.86674 | 3975 ft | 229 kts | 223° |
| 2026-05-05 19:27 | 32.38131 | -16.88242 | 3979 ft | 228 kts | 257° |
| 2026-05-05 19:27 | 32.38128 | -16.90081 | 3985 ft | 225 kts | 291° |
| 2026-05-05 19:27 | 32.38961 | -16.91593 | 3982 ft | 218 kts | 326° |
| 2026-05-05 19:27 | 32.40313 | -16.92264 | 3985 ft | 209 kts | 359° |
| 2026-05-05 19:28 | 32.41688 | -16.91892 | 3986 ft | 204 kts | 34° |
| 2026-05-05 19:28 | 32.42640 | -16.90638 | 3987 ft | 209 kts | 60° |
| 2026-05-05 19:28 | 32.43257 | -16.89082 | 3984 ft | 208 kts | 66° |
| 2026-05-05 19:28 | 32.43777 | -16.87514 | 3987 ft | 207 kts | 68° |
| 2026-05-05 19:29 | 32.44293 | -16.85928 | 4108 ft | 207 kts | 65° |
| 2026-05-05 19:29 | 32.45015 | -16.84435 | 4486 ft | 211 kts | 51° |
| 2026-05-05 19:29 | 32.46150 | -16.83284 | 4879 ft | 218 kts | 31° |
| 2026-05-05 19:29 | 32.47478 | -16.82419 | 4977 ft | 215 kts | 28° |
| 2026-05-05 19:30 | 32.48796 | -16.81622 | 4987 ft | 210 kts | 27° |
| 2026-05-05 19:30 | 32.50089 | -16.80852 | 4991 ft | 208 kts | 27° |
| 2026-05-05 19:30 | 32.51364 | -16.80088 | 4996 ft | 208 kts | 27° |
| 2026-05-05 19:30 | 32.52658 | -16.79305 | 4996 ft | 209 kts | 28° |
| 2026-05-05 19:31 | 32.53957 | -16.78512 | 4996 ft | 210 kts | 28° |
| 2026-05-05 19:31 | 32.55249 | -16.77722 | 4996 ft | 208 kts | 28° |
| 2026-05-05 19:31 | 32.56542 | -16.76928 | 4996 ft | 209 kts | 28° |
| 2026-05-05 19:31 | 32.57832 | -16.76135 | 5000 ft | 208 kts | 28° |
| 2026-05-05 19:32 | 32.59100 | -16.75355 | 4997 ft | 209 kts | 28° |
| 2026-05-05 19:32 | 32.60391 | -16.74563 | 4998 ft | 210 kts | 28° |
| 2026-05-05 19:32 | 32.61703 | -16.73756 | 5005 ft | 220 kts | 28° |
| 2026-05-05 19:32 | 32.63192 | -16.72837 | 5002 ft | 258 kts | 28° |
| 2026-05-05 19:33 | 32.64832 | -16.71826 | 5001 ft | 270 kts | 28° |
| 2026-05-05 19:33 | 32.66494 | -16.70806 | 4996 ft | 266 kts | 28° |
| 2026-05-05 19:33 | 32.68117 | -16.69808 | 5001 ft | 261 kts | 28° |
| 2026-05-05 19:33 | 32.69735 | -16.68814 | 5004 ft | 262 kts | 28° |
| 2026-05-05 19:34 | 32.71359 | -16.67814 | 4999 ft | 263 kts | 28° |
| 2026-05-05 19:34 | 32.72980 | -16.66813 | 5000 ft | 261 kts | 28° |
| 2026-05-05 19:34 | 32.74578 | -16.65829 | 4997 ft | 262 kts | 28° |
| 2026-05-05 19:35 | 32.77830 | -16.63821 | 4998 ft | 263 kts | 28° |
| 2026-05-05 19:35 | 32.79453 | -16.62820 | 4998 ft | 263 kts | 28° |
| 2026-05-05 19:35 | 32.81086 | -16.61811 | 5001 ft | 266 kts | 28° |
| 2026-05-05 19:35 | 32.82729 | -16.60795 | 5001 ft | 266 kts | 28° |
| 2026-05-05 19:36 | 32.84364 | -16.59785 | 5002 ft | 264 kts | 28° |
| 2026-05-05 19:36 | 32.85967 | -16.58799 | 5000 ft | 252 kts | 27° |
| 2026-05-05 19:36 | 32.87560 | -16.58090 | 5001 ft | 237 kts | 17° |
| 2026-05-05 19:36 | 32.89089 | -16.57621 | 4997 ft | 222 kts | 14° |
| 2026-05-05 19:37 | 32.90595 | -16.57192 | 5017 ft | 227 kts | 15° |
| 2026-05-05 19:37 | 32.92124 | -16.56732 | 5016 ft | 226 kts | 15° |
| 2026-05-05 19:37 | 32.93588 | -16.56108 | 5010 ft | 222 kts | 35° |
| 2026-05-05 19:37 | 32.94586 | -16.54731 | 5018 ft | 224 kts | 67° |
| 2026-05-05 19:38 | 32.94789 | -16.52912 | 5020 ft | 225 kts | 100° |
| 2026-05-05 19:38 | 32.94120 | -16.51251 | 5022 ft | 227 kts | 133° |
| 2026-05-05 19:38 | 32.92785 | -16.50285 | 5023 ft | 229 kts | 166° |
| 2026-05-05 19:38 | 32.91199 | -16.50330 | 5008 ft | 231 kts | 199° |
| 2026-05-05 19:39 | 32.89871 | -16.51364 | 4831 ft | 230 kts | 230° |
| 2026-05-05 19:39 | 32.88941 | -16.52935 | 4513 ft | 233 kts | 238° |
| 2026-05-05 19:39 | 32.88089 | -16.54569 | 4162 ft | 236 kts | 238° |
| 2026-05-05 19:39 | 32.87177 | -16.56234 | 3727 ft | 243 kts | 234° |
| 2026-05-05 19:40 | 32.86214 | -16.57872 | 3502 ft | 238 kts | 232° |
| 2026-05-05 19:40 | 32.85196 | -16.59412 | 3267 ft | 234 kts | 223° |
| 2026-05-05 19:40 | 32.84003 | -16.60692 | 3040 ft | 230 kts | 219° |
| 2026-05-05 19:40 | 32.82807 | -16.61942 | 2704 ft | 232 kts | 218° |
| 2026-05-05 19:41 | 32.81452 | -16.63072 | 2212 ft | 240 kts | 206° |
| 2026-05-05 19:41 | 32.79934 | -16.63852 | 2026 ft | 233 kts | 195° |
| 2026-05-05 19:41 | 32.78439 | -16.64436 | 2003 ft | 219 kts | 194° |
| 2026-05-05 19:41 | 32.77041 | -16.64996 | 1996 ft | 208 kts | 195° |
| 2026-05-05 19:42 | 32.75741 | -16.65525 | 1997 ft | 188 kts | 195° |
| 2026-05-05 19:42 | 32.74463 | -16.66041 | 2007 ft | 200 kts | 195° |
| 2026-05-05 19:42 | 32.73167 | -16.66563 | 2003 ft | 193 kts | 195° |
| 2026-05-05 19:42 | 32.71876 | -16.67088 | 1991 ft | 197 kts | 194° |
| 2026-05-05 19:43 | 32.70587 | -16.67610 | 1998 ft | 194 kts | 195° |
| 2026-05-05 19:43 | 32.69316 | -16.68126 | 1991 ft | 186 kts | 194° |
| 2026-05-05 19:43 | 32.68134 | -16.68610 | 1998 ft | 177 kts | 194° |
| 2026-05-05 19:43 | 32.66954 | -16.69087 | 1996 ft | 177 kts | 194° |
| 2026-05-05 19:44 | 32.65819 | -16.69548 | 1996 ft | 174 kts | 194° |
| 2026-05-05 19:44 | 32.64657 | -16.70016 | 2005 ft | 180 kts | 194° |
| 2026-05-05 19:44 | 32.63497 | -16.70542 | 1998 ft | 174 kts | 204° |
| 2026-05-05 19:44 | 32.62569 | -16.71299 | 1986 ft | 150 kts | 220° |
| 2026-05-05 19:45 | 32.61872 | -16.72198 | 2011 ft | 154 kts | 232° |
| 2026-05-05 19:45 | 32.61309 | -16.73308 | 2001 ft | 156 kts | 246° |
| 2026-05-05 19:45 | 32.60972 | -16.74493 | 1992 ft | 149 kts | 261° |
| 2026-05-05 19:45 | 32.60854 | -16.75726 | 1996 ft | 152 kts | 273° |
| 2026-05-05 19:46 | 32.60955 | -16.76963 | 2003 ft | 150 kts | 287° |
| 2026-05-05 19:46 | 32.61271 | -16.78134 | 1959 ft | 148 kts | 301° |
| 2026-05-05 19:46 | 32.61818 | -16.79113 | 1748 ft | 138 kts | 321° |
| 2026-05-05 19:46 | 32.62548 | -16.79813 | 1553 ft | 135 kts | 336° |
| 2026-05-05 19:47 | 32.63404 | -16.80234 | 1370 ft | 135 kts | 352° |
| 2026-05-05 19:47 | 32.64309 | -16.80368 | 1175 ft | 124 kts | 8° |
| 2026-05-05 19:47 | 32.65172 | -16.80348 | 930 ft | 124 kts | 8° |
| 2026-05-05 19:47 | 32.66016 | -16.80332 | 735 ft | 120 kts | 4° |
| 2026-05-05 19:48 | 32.66833 | -16.80194 | 574 ft | 119 kts | 17° |
| 2026-05-05 19:48 | 32.67584 | -16.79824 | 437 ft | 116 kts | 31° |
| 2026-05-05 19:48 | 32.68219 | -16.79259 | 430 ft | 118 kts | 39° |
| 2026-05-05 19:48 | 32.68817 | -16.78582 | 233 ft | 117 kts | 42° |
| 2026-05-05 19:49 | 32.69377 | -16.77931 | 172 ft | 94 kts | 44° |
| 2026-05-05 19:49 | 32.69609 | -16.77661 | 195 ft | 57 kts | 44° |
| 2026-05-05 19:49 | 32.69933 | -16.77283 | 211 ft | 38 kts | 44° |
| 2026-05-05 19:49 | 32.69942 | -16.77168 | 199 ft | 5 kts | 155° |
| 2026-05-05 19:50 | 32.69844 | -16.77176 | 184 ft | 20 kts | 210° |
| 2026-05-05 19:50 | 32.69742 | -16.77299 | 182 ft | 21 kts | 225° |
| 2026-05-05 19:50 | 32.69649 | -16.77414 | 180 ft | 18 kts | 228° |
| 2026-05-05 19:50 | 32.69561 | -16.77520 | 178 ft | 18 kts | 225° |
| 2026-05-05 19:51 | 32.69473 | -16.77631 | 176 ft | 19 kts | 226° |
| 2026-05-05 19:51 | 32.69406 | -16.77702 | 174 ft | 5 kts | 193° |
| 2026-05-05 19:51 | 32.69388 | -16.77694 | 173 ft | 0 kts | 151° |
| 2026-05-05 19:52 | 32.69373 | -16.77673 | 173 ft | 8 kts | 134° |
| 2026-05-05 19:52 | 32.69358 | -16.77656 | 173 ft | 0 kts | 134° |